Time;durP1;ratioP1;P1;durP2;ratioP2;P2;SDS_P1;SDS_P2;PMS_P1;PMS_P2;Temp;Humidity;BMP_temperature;BMP_pressure;BME280_temperature;BME280_humidity;BME280_pressure;Samples;Min_cycle;Max_cycle;Signal;HPM_P1;HPM_P2
2022/06/29 00:01:47;;;;;;;0.17;0.17;;;18.30;99.90;;;;;;5085029;28;20502;-70
2022/06/29 00:04:12;;;;;;;0.10;0.10;;;18.30;99.90;;;;;;5071506;28;20052;-70
2022/06/29 00:06:38;;;;;;;0.10;0.10;;;18.20;99.90;;;;;;5091016;28;20074;-70
2022/06/29 00:09:03;;;;;;;0.08;0.08;;;18.20;99.90;;;;;;5052900;28;20087;-70
2022/06/29 00:11:29;;;;;;;1.05;0.95;;;18.10;99.90;;;;;;5069746;28;20174;-70
2022/06/29 00:13:55;;;;;;;0.00;0.00;;;18.20;99.90;;;;;;5088715;28;20079;-70
2022/06/29 00:16:20;;;;;;;0.40;0.40;;;18.20;99.90;;;;;;5070027;28;20041;-70
2022/06/29 00:18:46;;;;;;;0.00;0.00;;;18.20;99.90;;;;;;5069782;28;20063;-70
2022/06/29 00:21:12;;;;;;;1.92;1.20;;;18.10;99.90;;;;;;5070542;28;20044;-70
2022/06/29 00:23:37;;;;;;;0.20;0.15;;;18.10;99.90;;;;;;5070511;28;20604;-70
2022/06/29 00:26:03;;;;;;;0.03;0.03;;;18.10;99.90;;;;;;5067594;28;20048;-70
2022/06/29 00:28:29;;;;;;;0.20;0.20;;;18.10;99.90;;;;;;5049020;28;20128;-70
2022/06/29 00:30:55;;;;;;;0.00;0.00;;;18.10;99.90;;;;;;5084314;28;20044;-70
2022/06/29 00:33:21;;;;;;;0.28;0.20;;;18.10;99.90;;;;;;5071301;28;20385;-70
2022/06/29 00:35:47;;;;;;;0.00;0.00;;;18.10;99.90;;;;;;5088442;28;20048;-70
2022/06/29 00:38:12;;;;;;;0.08;0.08;;;18.10;99.90;;;;;;5069193;28;20273;-70
2022/06/29 00:40:38;;;;;;;0.30;0.20;;;18.00;99.90;;;;;;5069556;28;20428;-70
2022/06/29 00:43:03;;;;;;;0.08;0.08;;;18.00;99.90;;;;;;5069660;28;20032;-70
2022/06/29 00:45:29;;;;;;;0.00;0.00;;;18.10;99.90;;;;;;5071189;28;20080;-70
2022/06/29 00:47:55;;;;;;;0.40;0.40;;;18.00;99.90;;;;;;5076160;28;20491;-70
2022/06/29 00:50:20;;;;;;;0.10;0.10;;;18.00;99.90;;;;;;5069650;28;20047;-70
2022/06/29 00:52:47;;;;;;;0.00;0.00;;;18.00;99.90;;;;;;5070352;28;20392;-70
2022/06/29 00:55:18;;;;;;;0.13;0.13;;;18.00;99.90;;;;;;5068959;28;20078;-70
2022/06/29 00:57:46;;;;;;;0.00;0.00;;;18.00;99.90;;;;;;5041976;28;20066;-70
2022/06/29 01:00:12;;;;;;;0.20;0.20;;;17.90;99.90;;;;;;5070060;28;20048;-70
2022/06/29 01:02:38;;;;;;;0.13;0.13;;;17.90;99.90;;;;;;5043563;28;20094;-70
2022/06/29 01:05:05;;;;;;;0.03;0.03;;;17.90;99.90;;;;;;5060164;28;20403;-70
2022/06/29 01:07:33;;;;;;;0.10;0.10;;;17.90;99.90;;;;;;5068063;28;20499;-70
2022/06/29 01:10:00;;;;;;;0.10;0.10;;;17.90;99.90;;;;;;5049849;28;20055;-70
2022/06/29 01:12:27;;;;;;;0.00;0.00;;;17.80;99.90;;;;;;5085542;28;20047;-70
2022/06/29 01:14:53;;;;;;;0.10;0.10;;;17.90;99.90;;;;;;5079809;28;20127;-70
2022/06/29 01:17:21;;;;;;;0.00;0.00;;;17.80;99.90;;;;;;5069807;28;20557;-70
2022/06/29 01:19:46;;;;;;;0.00;0.00;;;17.80;99.90;;;;;;5072300;28;20044;-70
2022/06/29 01:22:13;;;;;;;0.10;0.10;;;17.80;99.90;;;;;;5064474;28;20102;-70
2022/06/29 01:24:41;;;;;;;0.00;0.00;;;17.80;99.90;;;;;;5067984;28;20049;-70
2022/06/29 01:27:06;;;;;;;0.10;0.10;;;17.80;99.90;;;;;;5069357;28;20053;-70
2022/06/29 01:29:33;;;;;;;0.00;0.00;;;17.80;99.90;;;;;;5048765;28;20058;-70
2022/06/29 01:31:59;;;;;;;0.00;0.00;;;17.80;99.90;;;;;;5069167;28;20070;-70
2022/06/29 01:34:25;;;;;;;0.30;0.30;;;17.80;99.90;;;;;;5069664;28;20040;-70
2022/06/29 01:36:51;;;;;;;1.55;0.55;;;17.80;99.90;;;;;;5049566;28;20072;-70
2022/06/29 01:39:17;;;;;;;0.95;0.20;;;17.70;99.90;;;;;;5069141;28;20523;-70
2022/06/29 01:41:43;;;;;;;0.00;0.00;;;17.70;99.90;;;;;;5069486;28;20119;-70
2022/06/29 01:44:08;;;;;;;0.00;0.00;;;17.70;99.90;;;;;;5058818;28;20080;-70
2022/06/29 01:46:34;;;;;;;2.92;1.55;;;17.70;99.90;;;;;;5069598;28;20045;-70
2022/06/29 01:49:00;;;;;;;0.10;0.10;;;17.70;99.90;;;;;;5069233;28;20480;-70
2022/06/29 01:51:26;;;;;;;0.52;0.32;;;17.60;99.90;;;;;;5075854;28;20395;-70
2022/06/29 01:53:51;;;;;;;0.25;0.25;;;17.70;99.90;;;;;;5089746;28;20032;-70
2022/06/29 01:56:17;;;;;;;0.10;0.10;;;17.70;99.90;;;;;;5085634;28;20063;-70
2022/06/29 01:58:43;;;;;;;1.10;0.20;;;17.60;99.90;;;;;;5051798;28;20057;-70
2022/06/29 02:01:09;;;;;;;0.13;0.13;;;17.60;99.90;;;;;;5054887;28;20040;-70
2022/06/29 02:03:35;;;;;;;0.00;0.00;;;17.60;99.90;;;;;;5079634;28;20044;-70
2022/06/29 02:06:01;;;;;;;0.00;0.00;;;17.60;99.90;;;;;;5071427;28;20048;-70
2022/06/29 02:08:27;;;;;;;0.85;0.85;;;17.60;99.90;;;;;;5072018;28;20089;-70
2022/06/29 02:10:52;;;;;;;0.00;0.00;;;17.60;99.90;;;;;;5072259;28;20121;-70
2022/06/29 02:13:18;;;;;;;0.00;0.00;;;17.50;99.90;;;;;;5073057;28;20049;-70
2022/06/29 02:15:44;;;;;;;0.28;0.15;;;17.50;99.90;;;;;;5064489;28;20091;-70
2022/06/29 02:18:09;;;;;;;0.05;0.05;;;17.50;99.90;;;;;;5074167;28;20052;-70
2022/06/29 02:20:35;;;;;;;0.10;0.10;;;17.50;99.90;;;;;;5074612;28;20063;-70
2022/06/29 02:23:00;;;;;;;0.00;0.00;;;17.50;99.90;;;;;;5092740;28;20059;-70
2022/06/29 02:25:26;;;;;;;0.20;0.20;;;17.50;99.90;;;;;;5071750;28;20151;-70
2022/06/29 02:27:51;;;;;;;0.10;0.10;;;17.50;99.90;;;;;;5073104;28;20763;-70
2022/06/29 02:30:17;;;;;;;0.10;0.10;;;17.50;99.90;;;;;;5070677;28;20041;-70
2022/06/29 02:35:29;;;;;;;0.05;0.05;;;17.60;99.90;;;;;;5054628;28;20052;-70
2022/06/29 02:37:55;;;;;;;0.05;0.05;;;17.60;99.90;;;;;;5051596;28;20060;-70
2022/06/29 02:40:21;;;;;;;0.10;0.10;;;17.60;99.90;;;;;;5069601;28;20044;-70
2022/06/29 02:42:47;;;;;;;0.08;0.08;;;17.60;99.90;;;;;;5051000;28;20095;-70
2022/06/29 02:45:12;;;;;;;0.00;0.00;;;17.50;99.90;;;;;;5052524;28;20493;-70
2022/06/29 02:47:38;;;;;;;1.02;0.88;;;17.50;99.90;;;;;;5051696;28;20774;-70
2022/06/29 02:50:04;;;;;;;0.00;0.00;;;17.50;99.90;;;;;;5072212;28;20056;-70
2022/06/29 02:52:30;;;;;;;0.00;0.00;;;17.50;99.90;;;;;;5070670;28;20040;-70
2022/06/29 02:54:55;;;;;;;0.20;0.20;;;17.50;99.90;;;;;;5071223;28;20057;-70
2022/06/29 02:57:21;;;;;;;0.00;0.00;;;17.50;99.90;;;;;;5072014;28;20396;-70
2022/06/29 02:59:47;;;;;;;0.15;0.15;;;17.60;99.90;;;;;;5072625;28;20048;-70
2022/06/29 03:02:12;;;;;;;0.05;0.05;;;17.50;99.90;;;;;;5064507;28;20067;-70
2022/06/29 03:04:38;;;;;;;0.00;0.00;;;17.50;99.90;;;;;;5092051;28;20109;-70
2022/06/29 03:07:04;;;;;;;0.88;0.75;;;17.50;99.90;;;;;;5091393;28;20107;-70
2022/06/29 03:09:29;;;;;;;0.10;0.10;;;17.50;99.90;;;;;;5074682;28;20477;-70
2022/06/29 03:11:55;;;;;;;0.00;0.00;;;17.50;99.90;;;;;;5072084;28;20040;-70
2022/06/29 03:14:20;;;;;;;0.00;0.00;;;17.40;99.90;;;;;;5069069;28;20155;-70
2022/06/29 03:16:46;;;;;;;0.40;0.40;;;17.40;99.90;;;;;;5050555;28;20049;-70
2022/06/29 03:19:12;;;;;;;0.20;0.20;;;17.40;99.90;;;;;;5033016;28;20053;-69
2022/06/29 03:21:37;;;;;;;0.17;0.17;;;17.30;99.90;;;;;;5070740;28;20048;-69
2022/06/29 03:24:06;;;;;;;0.10;0.10;;;17.20;99.90;;;;;;5091535;28;20127;-69
2022/06/29 03:26:32;;;;;;;0.03;0.03;;;17.20;99.90;;;;;;5074963;28;20055;-69
2022/06/29 03:28:58;;;;;;;0.10;0.10;;;17.20;99.90;;;;;;5069330;28;20044;-70
2022/06/29 03:31:23;;;;;;;0.20;0.20;;;17.20;99.90;;;;;;5090888;28;20071;-69
2022/06/29 03:33:49;;;;;;;0.20;0.20;;;17.30;99.90;;;;;;5091668;28;20052;-70
2022/06/29 03:36:15;;;;;;;0.55;0.45;;;17.20;99.90;;;;;;5064503;28;20510;-70
2022/06/29 03:38:40;;;;;;;0.10;0.10;;;17.20;99.90;;;;;;5070828;28;20519;-70
2022/06/29 03:41:06;;;;;;;0.10;0.10;;;17.20;99.90;;;;;;5071020;28;20396;-70
2022/06/29 03:43:31;;;;;;;0.05;0.05;;;17.20;99.90;;;;;;5051416;28;20040;-70
2022/06/29 03:45:58;;;;;;;0.10;0.10;;;17.20;99.90;;;;;;5072499;28;20139;-70
2022/06/29 03:48:23;;;;;;;0.00;0.00;;;17.10;99.90;;;;;;5091256;28;20051;-70
2022/06/29 03:50:49;;;;;;;0.47;0.30;;;17.20;99.90;;;;;;5073240;28;20052;-70
2022/06/29 03:53:15;;;;;;;0.55;0.28;;;17.20;99.90;;;;;;5070302;28;20407;-70
2022/06/29 03:55:41;;;;;;;0.00;0.00;;;17.20;99.90;;;;;;5070572;28;20052;-70
2022/06/29 03:58:07;;;;;;;0.05;0.05;;;17.20;99.90;;;;;;5068569;28;20040;-70
2022/06/29 04:00:33;;;;;;;0.65;0.17;;;17.20;99.90;;;;;;5090772;28;20662;-70
2022/06/29 04:02:58;;;;;;;0.20;0.20;;;17.20;99.90;;;;;;5087389;28;20383;-70
2022/06/29 04:05:24;;;;;;;0.10;0.10;;;17.30;99.90;;;;;;5048059;28;20477;-70
2022/06/29 04:07:49;;;;;;;0.20;0.20;;;17.30;99.90;;;;;;5032645;28;20139;-70
2022/06/29 04:10:15;;;;;;;0.00;0.00;;;17.40;99.90;;;;;;5037990;28;20049;-70
2022/06/29 04:12:41;;;;;;;3.83;1.77;;;17.40;99.90;;;;;;5064989;28;20476;-70
2022/06/29 04:15:07;;;;;;;0.05;0.05;;;17.40;99.90;;;;;;5077052;28;20047;-70
2022/06/29 04:17:33;;;;;;;0.47;0.35;;;17.40;99.90;;;;;;5069470;28;20071;-70
2022/06/29 04:19:58;;;;;;;0.00;0.00;;;17.40;99.90;;;;;;5052108;28;20048;-70
2022/06/29 04:22:24;;;;;;;0.10;0.10;;;17.40;99.90;;;;;;5067949;28;20032;-70
2022/06/29 04:24:50;;;;;;;0.00;0.00;;;17.40;99.90;;;;;;5069991;28;20044;-70
2022/06/29 04:27:16;;;;;;;0.10;0.10;;;17.50;99.90;;;;;;5070353;28;20036;-70
2022/06/29 04:29:42;;;;;;;0.05;0.05;;;17.60;99.90;;;;;;5052631;28;20369;-70
2022/06/29 04:32:08;;;;;;;0.45;0.45;;;17.60;99.90;;;;;;5067198;28;20105;-70
2022/06/29 04:34:34;;;;;;;0.10;0.10;;;17.60;99.90;;;;;;5068345;28;20048;-70
2022/06/29 04:37:00;;;;;;;0.00;0.00;;;17.60;99.90;;;;;;5044715;28;20052;-70
2022/06/29 04:39:25;;;;;;;0.25;0.25;;;17.60;99.90;;;;;;5068890;28;20063;-70
2022/06/29 04:41:52;;;;;;;0.47;0.47;;;17.70;99.90;;;;;;5046908;28;20045;-70
2022/06/29 04:44:18;;;;;;;0.25;0.25;;;17.70;99.90;;;;;;5067905;28;20056;-70
2022/06/29 04:46:44;;;;;;;0.38;0.32;;;17.70;99.90;;;;;;5069501;28;20044;-70
2022/06/29 04:49:10;;;;;;;0.00;0.00;;;17.70;99.90;;;;;;5068203;28;20076;-70
2022/06/29 04:51:35;;;;;;;0.38;0.38;;;17.70;99.90;;;;;;5069240;28;20162;-70
2022/06/29 04:54:01;;;;;;;0.10;0.10;;;17.60;99.90;;;;;;5055818;28;20040;-70
2022/06/29 04:56:29;;;;;;;0.10;0.10;;;17.60;99.90;;;;;;5089744;28;20055;-70
2022/06/29 04:58:55;;;;;;;0.00;0.00;;;17.60;99.90;;;;;;5089016;28;20058;-70
2022/06/29 05:01:21;;;;;;;0.10;0.10;;;17.60;99.90;;;;;;5084490;28;20044;-70
2022/06/29 05:03:47;;;;;;;1.45;0.95;;;17.60;99.90;;;;;;5086720;28;20043;-70
2022/06/29 05:06:13;;;;;;;0.00;0.00;;;17.60;99.90;;;;;;5089440;28;20036;-70
2022/06/29 05:08:38;;;;;;;0.03;0.03;;;17.60;99.90;;;;;;5056890;28;20053;-70
2022/06/29 05:11:04;;;;;;;0.03;0.03;;;17.60;99.90;;;;;;5069577;28;20037;-70
2022/06/29 05:13:30;;;;;;;0.10;0.10;;;17.60;99.90;;;;;;5069726;28;20076;-70
2022/06/29 05:15:55;;;;;;;0.00;0.00;;;17.60;99.90;;;;;;5057213;28;20547;-70
2022/06/29 05:18:21;;;;;;;0.10;0.10;;;17.70;99.90;;;;;;5089241;28;20044;-70
2022/06/29 05:20:47;;;;;;;0.17;0.17;;;17.70;99.90;;;;;;5071162;28;20147;-70
2022/06/29 05:23:12;;;;;;;0.05;0.05;;;17.70;99.90;;;;;;5087519;28;20032;-70
2022/06/29 05:25:39;;;;;;;0.10;0.10;;;17.80;99.90;;;;;;5089631;28;20582;-70
2022/06/29 05:28:05;;;;;;;0.00;0.00;;;17.80;99.90;;;;;;5061424;28;20083;-70
2022/06/29 05:30:31;;;;;;;0.20;0.15;;;17.90;99.90;;;;;;5048286;28;20101;-70
2022/06/29 05:32:57;;;;;;;0.65;0.65;;;17.80;99.90;;;;;;5034643;28;20048;-70
2022/06/29 05:35:23;;;;;;;0.00;0.00;;;17.80;99.90;;;;;;5084693;28;20198;-71
2022/06/29 05:37:48;;;;;;;0.00;0.00;;;17.80;99.90;;;;;;5075466;28;20114;-70
2022/06/29 05:40:14;;;;;;;0.10;0.10;;;17.90;99.90;;;;;;5086393;28;20886;-70
2022/06/29 05:42:40;;;;;;;0.10;0.10;;;17.90;99.90;;;;;;5072182;28;20065;-70
2022/06/29 05:45:05;;;;;;;0.17;0.17;;;17.90;99.90;;;;;;5073185;28;20041;-70
2022/06/29 05:47:31;;;;;;;0.10;0.10;;;18.00;99.90;;;;;;5073392;28;20040;-70
2022/06/29 05:49:57;;;;;;;0.00;0.00;;;18.10;99.90;;;;;;5070634;28;20049;-69
2022/06/29 05:52:24;;;;;;;0.00;0.00;;;18.20;99.90;;;;;;5073218;28;20173;-70
2022/06/29 05:54:50;;;;;;;0.10;0.10;;;18.20;99.90;;;;;;5052754;28;20056;-70
2022/06/29 05:57:15;;;;;;;0.20;0.20;;;18.30;99.90;;;;;;5050983;28;20049;-70
2022/06/29 05:59:41;;;;;;;0.00;0.00;;;18.30;99.90;;;;;;5052595;28;20518;-70
2022/06/29 06:02:06;;;;;;;0.00;0.00;;;18.30;99.90;;;;;;5068575;28;20033;-70
2022/06/29 06:04:32;;;;;;;0.45;0.45;;;18.40;99.90;;;;;;5043816;28;20946;-70
2022/06/29 06:06:58;;;;;;;0.00;0.00;;;18.40;99.90;;;;;;5072662;28;20036;-70
2022/06/29 06:09:27;;;;;;;0.05;0.05;;;18.50;99.90;;;;;;5072432;28;20511;-70
2022/06/29 06:11:54;;;;;;;0.03;0.03;;;18.60;99.90;;;;;;5081782;28;20050;-70
2022/06/29 06:14:19;;;;;;;0.93;0.85;;;18.60;99.90;;;;;;5087405;28;20044;-70
2022/06/29 06:16:45;;;;;;;2.15;0.40;;;18.60;99.90;;;;;;5072903;28;20114;-70
2022/06/29 06:19:11;;;;;;;0.13;0.13;;;18.60;99.90;;;;;;5075422;28;20040;-70
2022/06/29 06:21:37;;;;;;;0.47;0.45;;;18.70;99.90;;;;;;5089060;28;20418;-70
2022/06/29 06:24:03;;;;;;;0.10;0.10;;;18.80;99.90;;;;;;5074877;28;20037;-70
2022/06/29 06:26:29;;;;;;;0.28;0.28;;;18.90;99.90;;;;;;5072799;28;20083;-70
2022/06/29 06:28:54;;;;;;;0.00;0.00;;;18.90;99.90;;;;;;5051452;28;20412;-70
2022/06/29 06:31:20;;;;;;;0.00;0.00;;;19.00;99.90;;;;;;5091744;28;20920;-70
2022/06/29 06:33:45;;;;;;;0.20;0.20;;;19.00;99.90;;;;;;5075146;28;20040;-70
2022/06/29 06:36:11;;;;;;;0.10;0.10;;;19.10;99.90;;;;;;5092931;28;20065;-70
2022/06/29 06:38:37;;;;;;;0.28;0.28;;;19.20;99.90;;;;;;5071167;28;20044;-70
2022/06/29 06:43:46;;;;;;;0.00;0.00;;;19.30;99.90;;;;;;5088720;28;20131;-70
2022/06/29 06:46:12;;;;;;;0.00;0.00;;;19.30;99.90;;;;;;5073822;28;20131;-71
2022/06/29 06:48:37;;;;;;;0.00;0.00;;;19.50;99.90;;;;;;5071061;28;20045;-70
2022/06/29 06:51:03;;;;;;;0.00;0.00;;;19.60;99.90;;;;;;5071969;28;20090;-70
2022/06/29 06:53:29;;;;;;;0.00;0.00;;;19.60;99.90;;;;;;5091423;28;20089;-70
2022/06/29 06:55:54;;;;;;;0.17;0.17;;;19.70;99.90;;;;;;5086357;28;20816;-70
2022/06/29 06:58:20;;;;;;;0.00;0.00;;;19.70;99.90;;;;;;5071340;28;20041;-70
2022/06/29 07:00:45;;;;;;;0.00;0.00;;;19.80;99.90;;;;;;5071532;28;20048;-70
2022/06/29 07:03:11;;;;;;;0.43;0.43;;;19.80;99.90;;;;;;5072312;28;20049;-70
2022/06/29 07:05:37;;;;;;;0.10;0.10;;;19.90;99.90;;;;;;5079338;28;20040;-70
2022/06/29 07:08:03;;;;;;;0.00;0.00;;;20.00;99.90;;;;;;5086937;28;20119;-70
2022/06/29 07:10:29;;;;;;;0.10;0.10;;;20.00;99.90;;;;;;5071317;28;20127;-70
2022/06/29 07:12:54;;;;;;;0.00;0.00;;;20.10;99.90;;;;;;5072212;28;20044;-71
2022/06/29 07:15:20;;;;;;;0.10;0.10;;;20.20;99.90;;;;;;5063110;28;20205;-70
2022/06/29 07:17:45;;;;;;;0.63;0.63;;;20.30;99.90;;;;;;5072118;28;20064;-70
2022/06/29 07:20:11;;;;;;;0.10;0.10;;;20.40;99.90;;;;;;5071285;28;20044;-70
2022/06/29 07:22:36;;;;;;;0.00;0.00;;;20.40;99.90;;;;;;5069257;28;20037;-70
2022/06/29 07:25:02;;;;;;;0.05;0.05;;;20.50;99.90;;;;;;5070863;28;20052;-70
2022/06/29 07:27:28;;;;;;;0.08;0.08;;;20.60;99.90;;;;;;5052863;28;20045;-71
2022/06/29 07:29:54;;;;;;;0.03;0.03;;;20.60;99.90;;;;;;5071843;28;20044;-71
2022/06/29 07:32:20;;;;;;;0.00;0.00;;;20.60;99.90;;;;;;5091255;28;20547;-71
2022/06/29 07:34:46;;;;;;;0.00;0.00;;;20.70;99.90;;;;;;5070102;28;20052;-70
2022/06/29 07:37:12;;;;;;;0.00;0.00;;;20.80;99.90;;;;;;5049719;28;20120;-71
2022/06/29 07:39:38;;;;;;;0.00;0.00;;;20.90;99.90;;;;;;5065123;28;20127;-71
2022/06/29 07:42:04;;;;;;;0.05;0.05;;;20.90;99.90;;;;;;5076097;28;20470;-71
2022/06/29 07:44:30;;;;;;;0.00;0.00;;;21.00;99.90;;;;;;5051533;28;20048;-70
2022/06/29 07:46:55;;;;;;;0.00;0.00;;;21.00;99.90;;;;;;5071225;28;20373;-70
2022/06/29 07:49:21;;;;;;;0.00;0.00;;;21.10;99.90;;;;;;5070052;28;20047;-70
2022/06/29 07:51:47;;;;;;;0.10;0.10;;;21.10;99.90;;;;;;5053697;28;20123;-70
2022/06/29 07:54:13;;;;;;;0.10;0.10;;;21.20;99.90;;;;;;5049902;28;20484;-70
2022/06/29 07:56:39;;;;;;;0.00;0.00;;;21.30;99.90;;;;;;5048834;28;20068;-71
2022/06/29 07:59:04;;;;;;;0.00;0.00;;;21.40;99.90;;;;;;5049343;28;20901;-70
2022/06/29 08:01:30;;;;;;;0.00;0.00;;;21.40;99.90;;;;;;5069295;28;20052;-71
2022/06/29 08:03:56;;;;;;;0.00;0.00;;;21.40;99.90;;;;;;5069583;28;20475;-71
2022/06/29 08:06:22;;;;;;;2.45;0.45;;;21.60;99.90;;;;;;5089346;28;20190;-71
2022/06/29 08:08:48;;;;;;;0.00;0.00;;;21.50;99.90;;;;;;5089515;28;20047;-71
2022/06/29 08:11:14;;;;;;;0.10;0.10;;;21.60;99.90;;;;;;5084040;28;20040;-71
2022/06/29 08:13:39;;;;;;;0.10;0.10;;;21.70;99.90;;;;;;5051126;28;20140;-71
2022/06/29 08:16:09;;;;;;;5.47;0.85;;;21.70;99.90;;;;;;5088446;28;20071;-70
2022/06/29 08:18:35;;;;;;;0.10;0.10;;;21.80;99.90;;;;;;5072201;28;20093;-71
2022/06/29 08:21:02;;;;;;;0.00;0.00;;;21.90;99.90;;;;;;5081222;28;20506;-70
2022/06/29 08:23:28;;;;;;;0.03;0.03;;;21.90;99.90;;;;;;5048671;28;20090;-70
2022/06/29 08:25:53;;;;;;;0.30;0.30;;;22.00;99.90;;;;;;5057839;28;20048;-71
2022/06/29 08:28:19;;;;;;;0.00;0.00;;;22.10;99.90;;;;;;5090005;28;20044;-71
2022/06/29 08:30:44;;;;;;;0.10;0.10;;;22.10;99.90;;;;;;5080638;28;20080;-70
2022/06/29 08:33:10;;;;;;;0.03;0.00;;;22.10;99.90;;;;;;5048518;28;20057;-71
2022/06/29 08:35:36;;;;;;;0.00;0.00;;;22.20;99.90;;;;;;5032405;28;20060;-70
2022/06/29 08:38:02;;;;;;;0.00;0.00;;;22.20;99.90;;;;;;5048498;28;20041;-71
2022/06/29 08:40:42;;;;;;;0.00;0.00;;;22.20;99.90;;;;;;5051231;28;20059;-70
2022/06/29 08:43:11;;;;;;;0.13;0.13;;;22.30;99.90;;;;;;5070062;28;20124;-71
2022/06/29 08:45:40;;;;;;;0.00;0.00;;;22.40;99.90;;;;;;5067194;28;20049;-71
2022/06/29 08:48:06;;;;;;;0.30;0.17;;;22.50;99.90;;;;;;5048381;28;20124;-71
2022/06/29 08:50:32;;;;;;;0.00;0.00;;;22.50;99.90;;;;;;5050093;28;20127;-71
2022/06/29 08:53:01;;;;;;;0.00;0.00;;;22.60;99.90;;;;;;5036207;28;20068;-71
2022/06/29 08:55:28;;;;;;;0.00;0.00;;;22.60;99.90;;;;;;5069669;28;20454;-70
2022/06/29 08:57:55;;;;;;;0.00;0.00;;;22.60;99.90;;;;;;5070459;28;20086;-71
2022/06/29 09:00:23;;;;;;;0.00;0.00;;;22.70;99.90;;;;;;5047624;28;20076;-71
2022/06/29 09:02:49;;;;;;;0.00;0.00;;;22.70;99.90;;;;;;5052283;28;20048;-70
2022/06/29 09:05:15;;;;;;;1.40;0.43;;;22.80;99.90;;;;;;5083440;28;20091;-70
2022/06/29 09:07:41;;;;;;;0.00;0.00;;;22.90;99.90;;;;;;5091771;28;20068;-70
2022/06/29 09:10:11;;;;;;;0.10;0.10;;;22.90;99.90;;;;;;5090405;28;20047;-71
2022/06/29 09:12:37;;;;;;;0.00;0.00;;;23.00;99.90;;;;;;5054829;28;20048;-71
2022/06/29 09:15:06;;;;;;;0.00;0.00;;;23.10;99.90;;;;;;5063514;28;20407;-71
2022/06/29 09:17:33;;;;;;;0.00;0.00;;;23.30;99.90;;;;;;5093980;28;20376;-71
2022/06/29 09:19:59;;;;;;;0.03;0.03;;;23.30;99.90;;;;;;5074843;28;20044;-71
2022/06/29 09:22:25;;;;;;;0.00;0.00;;;23.50;99.90;;;;;;5088129;28;20041;-71
2022/06/29 09:24:51;;;;;;;0.00;0.00;;;23.60;99.90;;;;;;5089176;28;20050;-71
2022/06/29 09:27:17;;;;;;;0.10;0.10;;;23.90;99.90;;;;;;5093025;28;20040;-71
2022/06/29 09:29:43;;;;;;;0.05;0.05;;;23.90;99.90;;;;;;5073164;28;20130;-71
2022/06/29 09:32:11;;;;;;;0.05;0.05;;;23.90;99.90;;;;;;5093474;28;20106;-71
2022/06/29 09:34:39;;;;;;;0.10;0.10;;;23.90;99.90;;;;;;5093033;28;20513;-71
2022/06/29 09:37:06;;;;;;;0.10;0.10;;;23.90;99.90;;;;;;5072767;28;20094;-71
2022/06/29 09:39:38;;;;;;;0.10;0.10;;;24.00;99.90;;;;;;5055204;28;20057;-70
2022/06/29 09:42:06;;;;;;;0.00;0.00;;;24.00;99.90;;;;;;5060635;28;20381;-71
2022/06/29 09:44:32;;;;;;;0.10;0.10;;;24.00;99.90;;;;;;5093455;28;20048;-70
2022/06/29 09:46:58;;;;;;;0.00;0.00;;;24.00;99.90;;;;;;5075399;28;20076;-71
2022/06/29 09:49:25;;;;;;;0.00;0.00;;;23.90;99.90;;;;;;5072177;28;20122;-71
2022/06/29 09:51:57;;;;;;;0.00;0.00;;;23.90;99.90;;;;;;5073176;28;20488;-71
2022/06/29 09:54:50;;;;;;;0.00;0.00;;;23.90;99.90;;;;;;5073063;28;20460;-71
2022/06/29 09:57:18;;;;;;;;;;;24.00;99.90;;;;;;5066099;28;20488;-71
2022/06/29 10:02:45;;;;;;;0.00;0.00;;;24.70;99.90;;;;;;5072286;28;20434;-71
2022/06/29 10:05:12;;;;;;;0.00;0.00;;;25.20;99.90;;;;;;5051912;28;20090;-71
2022/06/29 10:07:40;;;;;;;0.00;0.00;;;25.40;99.90;;;;;;5067603;28;20056;-71
2022/06/29 10:10:08;;;;;;;0.00;0.00;;;25.60;99.90;;;;;;5072158;28;20045;-70
2022/06/29 10:16:02;;;;;;;0.00;0.00;;;26.00;99.90;;;;;;5069522;28;20060;-71
2022/06/29 10:19:02;;;;;;;0.03;0.03;;;26.00;99.90;;;;;;5092599;28;20097;-70
2022/06/29 10:21:30;;;;;;;0.32;0.32;;;26.00;99.90;;;;;;5053379;28;20063;-71
2022/06/29 10:23:56;;;;;;;0.75;0.40;;;26.20;99.90;;;;;;5071039;28;20068;-70
2022/06/29 10:26:37;;;;;;;0.00;0.00;;;26.30;99.90;;;;;;5070139;28;20461;-70
2022/06/29 10:29:06;;;;;;;0.15;0.15;;;26.40;99.90;;;;;;5072021;28;20399;-70
2022/06/29 10:31:50;;;;;;;0.00;0.00;;;26.60;99.90;;;;;;5071879;28;20133;-70
2022/06/29 10:34:31;;;;;;;0.00;0.00;;;26.70;99.90;;;;;;5092310;28;20047;-71
2022/06/29 10:37:02;;;;;;;0.00;0.00;;;26.80;99.90;;;;;;5076015;28;20052;-71
2022/06/29 10:39:43;;;;;;;0.00;0.00;;;26.80;99.90;;;;;;5071206;28;20119;-71
2022/06/29 10:45:17;;;;;;;0.10;0.10;;;26.80;99.90;;;;;;5058929;28;20044;-71
2022/06/29 10:47:52;;;;;;;0.00;0.00;;;26.90;99.90;;;;;;5092154;28;20036;-71
2022/06/29 10:50:21;;;;;;;0.00;0.00;;;26.90;99.90;;;;;;5092308;28;20101;-71
2022/06/29 10:52:49;;;;;;;0.10;0.10;;;27.00;99.90;;;;;;5084603;28;20088;-71
2022/06/29 10:55:16;;;;;;;0.10;0.10;;;26.80;99.90;;;;;;5050283;28;20095;-71
2022/06/29 10:57:43;;;;;;;0.00;0.00;;;26.70;99.90;;;;;;5051873;28;20507;-71
2022/06/29 11:00:18;;;;;;;0.00;0.00;;;26.90;99.90;;;;;;5062121;28;20169;-71
2022/06/29 11:02:44;;;;;;;5.50;0.52;;;27.00;99.90;;;;;;5071786;28;20045;-71
2022/06/29 11:05:10;;;;;;;0.00;0.00;;;27.20;99.90;;;;;;5053523;28;20044;-71
2022/06/29 11:13:30;;;;;;;0.10;0.10;;;27.40;99.90;;;;;;4973433;28;20478;-70
2022/06/29 11:16:00;;;;;;;0.10;0.10;;;27.60;99.70;;;;;;5050316;28;20431;-71
2022/06/29 11:18:30;;;;;;;0.00;0.00;;;27.80;99.90;;;;;;5049963;28;20045;-71
2022/06/29 11:21:02;;;;;;;0.10;0.10;;;27.60;97.80;;;;;;5050720;28;20484;-70
2022/06/29 11:23:30;;;;;;;0.25;0.25;;;27.70;98.00;;;;;;5051551;28;20127;-70
2022/06/29 11:25:56;;;;;;;1.75;0.20;;;27.90;97.60;;;;;;5083201;28;20043;-70
2022/06/29 11:28:28;;;;;;;0.00;0.00;;;27.80;97.80;;;;;;5089168;28;20044;-70
2022/06/29 11:31:12;;;;;;;0.00;0.00;;;28.00;97.30;;;;;;5069192;28;20044;-70
2022/06/29 11:33:42;;;;;;;0.10;0.10;;;28.30;97.70;;;;;;5052805;28;20047;-70
2022/06/29 11:36:19;;;;;;;0.00;0.00;;;28.10;97.20;;;;;;5070981;28;20480;-70
2022/06/29 11:38:50;;;;;;;0.65;0.65;;;27.80;97.90;;;;;;5061490;28;20048;-70
2022/06/29 11:43:03;;;;;;;0.10;0.10;;;27.30;97.10;;;;;;5070317;28;20070;-70
2022/06/29 11:44:27;;;;;;;0.00;0.00;;;27.20;96.90;;;;;;5070726;28;20056;-70
2022/06/29 11:46:54;;;;;;;0.10;0.08;;;27.40;97.80;;;;;;5068987;28;20549;-70
2022/06/29 11:49:39;;;;;;;0.20;0.03;;;27.90;97.70;;;;;;5069802;28;20111;-70
2022/06/29 11:52:13;;;;;;;0.08;0.08;;;27.60;96.20;;;;;;5070633;28;20040;-70
2022/06/29 11:54:40;;;;;;;0.00;0.00;;;27.50;97.60;;;;;;5052159;28;20472;-71
2022/06/29 11:57:12;;;;;;;0.50;0.32;;;27.70;97.00;;;;;;5069064;28;20110;-70
2022/06/29 11:59:39;;;;;;;0.00;0.00;;;27.60;96.00;;;;;;5049524;28;20480;-70
2022/06/29 12:02:05;;;;;;;0.05;0.05;;;28.00;97.00;;;;;;5068363;28;20040;-70
2022/06/29 12:04:33;;;;;;;1.10;0.45;;;28.20;97.00;;;;;;5048219;28;20052;-70
2022/06/29 12:07:16;;;;;;;0.00;0.00;;;28.30;95.80;;;;;;5054434;28;20037;-71
2022/06/29 12:09:42;;;;;;;0.17;0.17;;;28.20;96.20;;;;;;5069948;28;20083;-70
2022/06/29 12:12:09;;;;;;;0.00;0.00;;;28.40;95.70;;;;;;5052592;28;20090;-71
2022/06/29 12:14:37;;;;;;;0.28;0.05;;;28.60;95.60;;;;;;5069949;28;20044;-71
2022/06/29 12:17:03;;;;;;;0.10;0.00;;;28.90;96.20;;;;;;5071757;28;20052;-71
2022/06/29 12:19:29;;;;;;;0.00;0.00;;;29.10;96.20;;;;;;5078950;28;20086;-71
2022/06/29 12:21:57;;;;;;;0.00;0.00;;;29.30;94.80;;;;;;5070309;28;20056;-71
2022/06/29 12:24:24;;;;;;;0.30;0.17;;;29.20;94.40;;;;;;5051868;28;20048;-71
2022/06/29 12:26:49;;;;;;;0.00;0.00;;;29.40;95.60;;;;;;5052630;28;20048;-70
2022/06/29 12:29:15;;;;;;;0.00;0.00;;;29.40;95.60;;;;;;5065666;28;20040;-71
2022/06/29 12:31:42;;;;;;;0.00;0.00;;;29.50;94.60;;;;;;5089810;28;20048;-71
2022/06/29 12:34:11;;;;;;;0.00;0.00;;;29.40;94.60;;;;;;5089948;28;20088;-71
2022/06/29 12:36:37;;;;;;;0.20;0.20;;;29.50;94.10;;;;;;5084818;28;20051;-70
2022/06/29 12:39:04;;;;;;;0.00;0.00;;;29.60;93.80;;;;;;5068723;28;20127;-70
2022/06/29 12:41:31;;;;;;;1.55;0.47;;;29.60;93.60;;;;;;5068170;28;20048;-70
2022/06/29 12:43:57;;;;;;;0.00;0.00;;;29.00;92.90;;;;;;5069083;28;20372;-71
2022/06/29 12:46:23;;;;;;;0.00;0.00;;;28.90;93.40;;;;;;5048465;28;20063;-70
2022/06/29 12:48:48;;;;;;;0.38;0.30;;;29.20;93.20;;;;;;5049835;28;20093;-70
2022/06/29 12:51:14;;;;;;;0.00;0.00;;;29.50;94.40;;;;;;5069266;28;20041;-71
2022/06/29 12:53:40;;;;;;;0.05;0.05;;;29.80;92.80;;;;;;5070029;28;20045;-70
2022/06/29 12:56:06;;;;;;;0.10;0.10;;;29.80;92.90;;;;;;5069332;28;20087;-70
2022/06/29 12:58:32;;;;;;;0.00;0.00;;;30.10;94.10;;;;;;5069243;28;20041;-69
2022/06/29 13:00:58;;;;;;;0.00;0.00;;;30.30;93.60;;;;;;5051614;28;20056;-70
2022/06/29 13:03:24;;;;;;;0.00;0.00;;;30.60;94.20;;;;;;5068499;28;20037;-70
2022/06/29 13:05:50;;;;;;;0.10;0.10;;;30.80;93.40;;;;;;5068628;28;20071;-70
2022/06/29 13:08:16;;;;;;;0.00;0.00;;;30.90;92.80;;;;;;5069747;28;20110;-70